sensor_id;sensor_type;location;lat;lon;timestamp;P1;durP1;ratioP1;P2;durP2;ratioP2
65764;SDS011;52915;53.718;19.946;2022-07-12T00:03:31;3.50;;;3.10;;
65764;SDS011;52915;53.718;19.946;2022-07-12T00:08:37;14.40;;;4.80;;
65764;SDS011;52915;53.718;19.946;2022-07-12T00:13:41;6.70;;;3.80;;
65764;SDS011;52915;53.718;19.946;2022-07-12T00:18:45;4.80;;;2.80;;
65764;SDS011;52915;53.718;19.946;2022-07-12T00:23:49;7.60;;;3.90;;
65764;SDS011;52915;53.718;19.946;2022-07-12T00:28:53;7.30;;;3.30;;
65764;SDS011;52915;53.718;19.946;2022-07-12T00:33:58;4.90;;;3.20;;
65764;SDS011;52915;53.718;19.946;2022-07-12T00:39:04;9.00;;;4.10;;
65764;SDS011;52915;53.718;19.946;2022-07-12T00:44:08;3.30;;;3.00;;
65764;SDS011;52915;53.718;19.946;2022-07-12T00:49:13;5.80;;;3.30;;
65764;SDS011;52915;53.718;19.946;2022-07-12T00:54:18;14.00;;;4.00;;
65764;SDS011;52915;53.718;19.946;2022-07-12T00:59:23;10.00;;;2.80;;
65764;SDS011;52915;53.718;19.946;2022-07-12T01:04:28;5.70;;;3.50;;
65764;SDS011;52915;53.718;19.946;2022-07-12T01:09:35;9.00;;;3.10;;
65764;SDS011;52915;53.718;19.946;2022-07-12T01:14:40;4.30;;;2.70;;
65764;SDS011;52915;53.718;19.946;2022-07-12T01:19:45;5.30;;;2.80;;
65764;SDS011;52915;53.718;19.946;2022-07-12T01:24:51;6.80;;;3.30;;
65764;SDS011;52915;53.718;19.946;2022-07-12T01:29:55;6.10;;;3.60;;
65764;SDS011;52915;53.718;19.946;2022-07-12T01:35:05;23.60;;;3.60;;
65764;SDS011;52915;53.718;19.946;2022-07-12T01:40:12;13.20;;;4.70;;
65764;SDS011;52915;53.718;19.946;2022-07-12T01:45:18;7.80;;;3.90;;
65764;SDS011;52915;53.718;19.946;2022-07-12T01:50:22;8.30;;;3.50;;
65764;SDS011;52915;53.718;19.946;2022-07-12T01:55:27;15.70;;;4.00;;
65764;SDS011;52915;53.718;19.946;2022-07-12T02:00:33;5.60;;;3.80;;
65764;SDS011;52915;53.718;19.946;2022-07-12T02:05:40;5.80;;;3.50;;
65764;SDS011;52915;53.718;19.946;2022-07-12T02:10:45;8.20;;;3.50;;
65764;SDS011;52915;53.718;19.946;2022-07-12T02:15:49;15.30;;;4.00;;
65764;SDS011;52915;53.718;19.946;2022-07-12T02:20:54;7.30;;;3.40;;
65764;SDS011;52915;53.718;19.946;2022-07-12T02:25:59;7.40;;;3.00;;
65764;SDS011;52915;53.718;19.946;2022-07-12T02:31:03;12.20;;;3.00;;
65764;SDS011;52915;53.718;19.946;2022-07-12T02:36:08;11.50;;;5.30;;
65764;SDS011;52915;53.718;19.946;2022-07-12T02:41:13;6.90;;;2.90;;
65764;SDS011;52915;53.718;19.946;2022-07-12T02:46:17;7.10;;;3.10;;
65764;SDS011;52915;53.718;19.946;2022-07-12T02:51:22;12.20;;;3.30;;
65764;SDS011;52915;53.718;19.946;2022-07-12T02:56:26;9.80;;;3.40;;
65764;SDS011;52915;53.718;19.946;2022-07-12T03:01:31;4.70;;;2.50;;
65764;SDS011;52915;53.718;19.946;2022-07-12T03:06:35;16.10;;;2.60;;
65764;SDS011;52915;53.718;19.946;2022-07-12T03:11:39;10.50;;;2.20;;
65764;SDS011;52915;53.718;19.946;2022-07-12T03:16:43;7.30;;;1.60;;
65764;SDS011;52915;53.718;19.946;2022-07-12T03:21:47;10.20;;;2.20;;
65764;SDS011;52915;53.718;19.946;2022-07-12T03:26:52;5.70;;;1.90;;
65764;SDS011;52915;53.718;19.946;2022-07-12T03:31:59;9.20;;;2.60;;
65764;SDS011;52915;53.718;19.946;2022-07-12T03:37:03;8.50;;;2.10;;
65764;SDS011;52915;53.718;19.946;2022-07-12T03:42:08;3.70;;;1.80;;
65764;SDS011;52915;53.718;19.946;2022-07-12T03:47:12;3.30;;;2.30;;
65764;SDS011;52915;53.718;19.946;2022-07-12T03:52:17;17.30;;;2.00;;
65764;SDS011;52915;53.718;19.946;2022-07-12T03:57:21;5.90;;;2.10;;
65764;SDS011;52915;53.718;19.946;2022-07-12T04:02:25;6.40;;;1.90;;
65764;SDS011;52915;53.718;19.946;2022-07-12T04:07:29;4.90;;;2.10;;
65764;SDS011;52915;53.718;19.946;2022-07-12T04:12:34;6.90;;;2.80;;
65764;SDS011;52915;53.718;19.946;2022-07-12T04:17:38;6.90;;;3.10;;
65764;SDS011;52915;53.718;19.946;2022-07-12T04:22:42;11.10;;;3.10;;
65764;SDS011;52915;53.718;19.946;2022-07-12T04:27:49;10.10;;;2.50;;
65764;SDS011;52915;53.718;19.946;2022-07-12T04:32:54;5.10;;;2.80;;
65764;SDS011;52915;53.718;19.946;2022-07-12T04:37:58;6.60;;;3.20;;
65764;SDS011;52915;53.718;19.946;2022-07-12T04:43:03;7.00;;;3.80;;
65764;SDS011;52915;53.718;19.946;2022-07-12T04:48:07;8.70;;;2.60;;
65764;SDS011;52915;53.718;19.946;2022-07-12T04:53:14;7.00;;;3.10;;
65764;SDS011;52915;53.718;19.946;2022-07-12T04:58:21;6.10;;;3.00;;
65764;SDS011;52915;53.718;19.946;2022-07-12T05:03:26;7.70;;;2.70;;
65764;SDS011;52915;53.718;19.946;2022-07-12T05:08:30;8.80;;;2.90;;
65764;SDS011;52915;53.718;19.946;2022-07-12T05:13:35;7.60;;;2.20;;
65764;SDS011;52915;53.718;19.946;2022-07-12T05:18:39;4.30;;;2.10;;
65764;SDS011;52915;53.718;19.946;2022-07-12T05:23:43;6.50;;;1.70;;
65764;SDS011;52915;53.718;19.946;2022-07-12T05:28:47;3.00;;;2.00;;
65764;SDS011;52915;53.718;19.946;2022-07-12T05:33:52;7.20;;;2.00;;
65764;SDS011;52915;53.718;19.946;2022-07-12T05:38:57;7.70;;;1.70;;
65764;SDS011;52915;53.718;19.946;2022-07-12T05:44:01;10.20;;;1.60;;
65764;SDS011;52915;53.718;19.946;2022-07-12T05:49:05;4.10;;;1.30;;
65764;SDS011;52915;53.718;19.946;2022-07-12T05:54:10;3.00;;;1.90;;
65764;SDS011;52915;53.718;19.946;2022-07-12T05:59:14;3.30;;;1.40;;
65764;SDS011;52915;53.718;19.946;2022-07-12T06:04:21;2.60;;;1.50;;
65764;SDS011;52915;53.718;19.946;2022-07-12T06:09:25;7.00;;;2.00;;
65764;SDS011;52915;53.718;19.946;2022-07-12T06:14:29;2.70;;;1.40;;
65764;SDS011;52915;53.718;19.946;2022-07-12T06:19:33;4.40;;;1.80;;
65764;SDS011;52915;53.718;19.946;2022-07-12T06:24:38;3.70;;;1.30;;
65764;SDS011;52915;53.718;19.946;2022-07-12T06:29:42;8.00;;;2.30;;
65764;SDS011;52915;53.718;19.946;2022-07-12T06:34:51;4.30;;;1.60;;
65764;SDS011;52915;53.718;19.946;2022-07-12T06:39:56;4.80;;;1.20;;
65764;SDS011;52915;53.718;19.946;2022-07-12T06:45:01;2.10;;;1.20;;
65764;SDS011;52915;53.718;19.946;2022-07-12T06:50:05;2.30;;;1.20;;
65764;SDS011;52915;53.718;19.946;2022-07-12T06:55:10;1.20;;;1.00;;
65764;SDS011;52915;53.718;19.946;2022-07-12T07:00:14;1.80;;;1.40;;
65764;SDS011;52915;53.718;19.946;2022-07-12T07:05:19;2.70;;;1.30;;
65764;SDS011;52915;53.718;19.946;2022-07-12T07:10:23;6.30;;;1.50;;
65764;SDS011;52915;53.718;19.946;2022-07-12T07:15:28;10.40;;;1.70;;
65764;SDS011;52915;53.718;19.946;2022-07-12T07:20:32;1.60;;;1.40;;
65764;SDS011;52915;53.718;19.946;2022-07-12T07:25:36;3.30;;;1.30;;
65764;SDS011;52915;53.718;19.946;2022-07-12T07:30:40;2.80;;;1.50;;
65764;SDS011;52915;53.718;19.946;2022-07-12T07:35:57;2.20;;;1.00;;
65764;SDS011;52915;53.718;19.946;2022-07-12T07:41:01;0.90;;;0.90;;
65764;SDS011;52915;53.718;19.946;2022-07-12T07:46:05;3.00;;;1.00;;
65764;SDS011;52915;53.718;19.946;2022-07-12T07:51:10;2.40;;;1.20;;
65764;SDS011;52915;53.718;19.946;2022-07-12T07:56:14;4.60;;;1.40;;
65764;SDS011;52915;53.718;19.946;2022-07-12T08:01:19;2.20;;;1.40;;
65764;SDS011;52915;53.718;19.946;2022-07-12T08:06:23;1.90;;;1.20;;
65764;SDS011;52915;53.718;19.946;2022-07-12T08:11:28;1.40;;;1.10;;
65764;SDS011;52915;53.718;19.946;2022-07-12T08:16:34;3.90;;;1.20;;
65764;SDS011;52915;53.718;19.946;2022-07-12T08:21:39;4.50;;;1.10;;
65764;SDS011;52915;53.718;19.946;2022-07-12T08:26:43;8.10;;;1.00;;
65764;SDS011;52915;53.718;19.946;2022-07-12T08:31:47;1.40;;;1.30;;
65764;SDS011;52915;53.718;19.946;2022-07-12T08:36:52;5.90;;;1.30;;
65764;SDS011;52915;53.718;19.946;2022-07-12T08:41:57;3.60;;;1.80;;
65764;SDS011;52915;53.718;19.946;2022-07-12T08:47:01;1.30;;;1.00;;
65764;SDS011;52915;53.718;19.946;2022-07-12T08:52:25;2.00;;;1.40;;
65764;SDS011;52915;53.718;19.946;2022-07-12T08:57:31;2.20;;;1.30;;
65764;SDS011;52915;53.718;19.946;2022-07-12T09:02:47;4.10;;;1.20;;
65764;SDS011;52915;53.718;19.946;2022-07-12T09:08:04;1.50;;;1.00;;
65764;SDS011;52915;53.718;19.946;2022-07-12T09:13:09;1.90;;;1.30;;
65764;SDS011;52915;53.718;19.946;2022-07-12T09:18:14;2.60;;;1.40;;
65764;SDS011;52915;53.718;19.946;2022-07-12T09:23:21;1.30;;;1.20;;
65764;SDS011;52915;53.718;19.946;2022-07-12T09:28:25;1.50;;;1.40;;
65764;SDS011;52915;53.718;19.946;2022-07-12T09:33:29;2.00;;;1.10;;
65764;SDS011;52915;53.718;19.946;2022-07-12T09:38:54;4.00;;;1.50;;
65764;SDS011;52915;53.718;19.946;2022-07-12T09:44:07;3.00;;;1.40;;
65764;SDS011;52915;53.718;19.946;2022-07-12T09:49:13;1.90;;;1.40;;
65764;SDS011;52915;53.718;19.946;2022-07-12T09:54:26;3.20;;;1.30;;
65764;SDS011;52915;53.718;19.946;2022-07-12T09:59:35;2.50;;;1.30;;
65764;SDS011;52915;53.718;19.946;2022-07-12T10:04:41;4.40;;;1.20;;
65764;SDS011;52915;53.718;19.946;2022-07-12T10:09:55;1.10;;;1.00;;
65764;SDS011;52915;53.718;19.946;2022-07-12T10:15:03;1.70;;;1.20;;
65764;SDS011;52915;53.718;19.946;2022-07-12T10:20:18;3.60;;;1.20;;
65764;SDS011;52915;53.718;19.946;2022-07-12T10:30:30;2.30;;;1.30;;
65764;SDS011;52915;53.718;19.946;2022-07-12T10:36:07;3.70;;;1.10;;
65764;SDS011;52915;53.718;19.946;2022-07-12T10:41:19;5.30;;;1.50;;
65764;SDS011;52915;53.718;19.946;2022-07-12T10:51:29;10.00;;;1.30;;
65764;SDS011;52915;53.718;19.946;2022-07-12T10:56:33;3.20;;;1.30;;
65764;SDS011;52915;53.718;19.946;2022-07-12T11:01:46;2.30;;;1.40;;
65764;SDS011;52915;53.718;19.946;2022-07-12T11:06:53;4.80;;;1.30;;
65764;SDS011;52915;53.718;19.946;2022-07-12T11:12:00;2.80;;;1.40;;
65764;SDS011;52915;53.718;19.946;2022-07-12T11:17:05;6.70;;;1.40;;
65764;SDS011;52915;53.718;19.946;2022-07-12T11:22:10;5.90;;;1.30;;
65764;SDS011;52915;53.718;19.946;2022-07-12T11:27:15;4.20;;;1.30;;
65764;SDS011;52915;53.718;19.946;2022-07-12T11:32:36;3.40;;;1.30;;
65764;SDS011;52915;53.718;19.946;2022-07-12T11:37:56;5.20;;;2.30;;
65764;SDS011;52915;53.718;19.946;2022-07-12T11:43:05;5.20;;;1.40;;
65764;SDS011;52915;53.718;19.946;2022-07-12T11:48:09;5.90;;;1.80;;
65764;SDS011;52915;53.718;19.946;2022-07-12T11:53:19;2.50;;;1.60;;
65764;SDS011;52915;53.718;19.946;2022-07-12T11:58:27;7.20;;;1.50;;
65764;SDS011;52915;53.718;19.946;2022-07-12T12:03:44;2.60;;;1.40;;
65764;SDS011;52915;53.718;19.946;2022-07-12T12:08:50;2.00;;;1.70;;
65764;SDS011;52915;53.718;19.946;2022-07-12T12:13:58;2.80;;;1.90;;
65764;SDS011;52915;53.718;19.946;2022-07-12T12:19:02;3.70;;;1.50;;
65764;SDS011;52915;53.718;19.946;2022-07-12T12:24:10;10.60;;;1.60;;
65764;SDS011;52915;53.718;19.946;2022-07-12T12:29:14;3.10;;;1.50;;
65764;SDS011;52915;53.718;19.946;2022-07-12T12:34:19;7.50;;;1.60;;
65764;SDS011;52915;53.718;19.946;2022-07-12T12:39:30;4.20;;;1.40;;
65764;SDS011;52915;53.718;19.946;2022-07-12T12:44:34;8.30;;;1.30;;
65764;SDS011;52915;53.718;19.946;2022-07-12T12:49:49;4.80;;;1.30;;
65764;SDS011;52915;53.718;19.946;2022-07-12T12:55:02;2.70;;;1.20;;
65764;SDS011;52915;53.718;19.946;2022-07-12T13:00:08;6.90;;;1.20;;
65764;SDS011;52915;53.718;19.946;2022-07-12T13:05:17;3.50;;;1.10;;
65764;SDS011;52915;53.718;19.946;2022-07-12T13:10:23;5.40;;;1.30;;
65764;SDS011;52915;53.718;19.946;2022-07-12T13:15:28;3.50;;;1.40;;
65764;SDS011;52915;53.718;19.946;2022-07-12T13:20:33;3.80;;;1.50;;
65764;SDS011;52915;53.718;19.946;2022-07-12T13:25:38;3.30;;;1.50;;
65764;SDS011;52915;53.718;19.946;2022-07-12T13:30:42;4.20;;;1.80;;
65764;SDS011;52915;53.718;19.946;2022-07-12T13:35:46;1.90;;;1.30;;
65764;SDS011;52915;53.718;19.946;2022-07-12T13:40:50;1.60;;;1.50;;
65764;SDS011;52915;53.718;19.946;2022-07-12T13:45:55;4.80;;;1.30;;
65764;SDS011;52915;53.718;19.946;2022-07-12T13:50:59;2.30;;;1.50;;
65764;SDS011;52915;53.718;19.946;2022-07-12T13:56:24;3.30;;;1.20;;
65764;SDS011;52915;53.718;19.946;2022-07-12T14:01:32;6.60;;;1.60;;
65764;SDS011;52915;53.718;19.946;2022-07-12T14:06:37;1.80;;;1.30;;
65764;SDS011;52915;53.718;19.946;2022-07-12T14:11:41;10.00;;;2.30;;
65764;SDS011;52915;53.718;19.946;2022-07-12T14:16:45;3.10;;;1.20;;
65764;SDS011;52915;53.718;19.946;2022-07-12T14:21:50;5.70;;;1.10;;
65764;SDS011;52915;53.718;19.946;2022-07-12T14:26:55;6.40;;;1.10;;
65764;SDS011;52915;53.718;19.946;2022-07-12T14:31:59;4.40;;;0.90;;
65764;SDS011;52915;53.718;19.946;2022-07-12T14:37:05;13.00;;;1.20;;
65764;SDS011;52915;53.718;19.946;2022-07-12T14:42:09;4.40;;;1.00;;
65764;SDS011;52915;53.718;19.946;2022-07-12T14:47:16;6.40;;;1.20;;
65764;SDS011;52915;53.718;19.946;2022-07-12T14:52:22;2.20;;;1.30;;
65764;SDS011;52915;53.718;19.946;2022-07-12T14:57:26;7.80;;;1.40;;
65764;SDS011;52915;53.718;19.946;2022-07-12T15:02:31;6.10;;;1.30;;
65764;SDS011;52915;53.718;19.946;2022-07-12T15:07:35;11.90;;;2.40;;
65764;SDS011;52915;53.718;19.946;2022-07-12T15:12:39;8.70;;;1.20;;
65764;SDS011;52915;53.718;19.946;2022-07-12T15:17:44;8.00;;;1.60;;
65764;SDS011;52915;53.718;19.946;2022-07-12T15:22:48;8.80;;;1.50;;
65764;SDS011;52915;53.718;19.946;2022-07-12T15:27:53;4.80;;;1.40;;
65764;SDS011;52915;53.718;19.946;2022-07-12T15:32:58;3.70;;;1.20;;
65764;SDS011;52915;53.718;19.946;2022-07-12T15:38:03;4.50;;;1.60;;
65764;SDS011;52915;53.718;19.946;2022-07-12T15:43:07;11.90;;;1.90;;
65764;SDS011;52915;53.718;19.946;2022-07-12T15:48:12;3.70;;;1.00;;
65764;SDS011;52915;53.718;19.946;2022-07-12T15:53:17;10.50;;;1.50;;
65764;SDS011;52915;53.718;19.946;2022-07-12T15:58:39;7.10;;;1.60;;
65764;SDS011;52915;53.718;19.946;2022-07-12T16:03:49;6.00;;;2.20;;
65764;SDS011;52915;53.718;19.946;2022-07-12T16:09:07;6.10;;;2.50;;
65764;SDS011;52915;53.718;19.946;2022-07-12T16:14:12;5.50;;;1.30;;
65764;SDS011;52915;53.718;19.946;2022-07-12T16:19:26;3.40;;;1.40;;
65764;SDS011;52915;53.718;19.946;2022-07-12T16:24:31;9.00;;;2.90;;
65764;SDS011;52915;53.718;19.946;2022-07-12T16:29:35;2.10;;;1.50;;
65764;SDS011;52915;53.718;19.946;2022-07-12T16:34:40;2.00;;;1.30;;
65764;SDS011;52915;53.718;19.946;2022-07-12T16:39:45;4.10;;;1.40;;
65764;SDS011;52915;53.718;19.946;2022-07-12T16:44:50;8.30;;;1.80;;
65764;SDS011;52915;53.718;19.946;2022-07-12T16:49:54;8.60;;;1.50;;
65764;SDS011;52915;53.718;19.946;2022-07-12T16:54:58;5.00;;;1.70;;
65764;SDS011;52915;53.718;19.946;2022-07-12T17:00:07;2.70;;;1.30;;
65764;SDS011;52915;53.718;19.946;2022-07-12T17:05:16;15.10;;;1.70;;
65764;SDS011;52915;53.718;19.946;2022-07-12T17:10:24;1.50;;;1.20;;
65764;SDS011;52915;53.718;19.946;2022-07-12T17:15:30;2.80;;;1.80;;
65764;SDS011;52915;53.718;19.946;2022-07-12T17:20:35;3.70;;;1.70;;
65764;SDS011;52915;53.718;19.946;2022-07-12T17:25:45;4.80;;;1.30;;
65764;SDS011;52915;53.718;19.946;2022-07-12T17:30:51;11.30;;;2.00;;
65764;SDS011;52915;53.718;19.946;2022-07-12T17:35:57;12.40;;;2.00;;
65764;SDS011;52915;53.718;19.946;2022-07-12T17:41:03;4.30;;;1.60;;
65764;SDS011;52915;53.718;19.946;2022-07-12T17:46:08;4.80;;;1.60;;
65764;SDS011;52915;53.718;19.946;2022-07-12T17:51:13;4.50;;;1.40;;
65764;SDS011;52915;53.718;19.946;2022-07-12T17:56:18;8.00;;;1.70;;
65764;SDS011;52915;53.718;19.946;2022-07-12T18:01:23;2.60;;;1.50;;
65764;SDS011;52915;53.718;19.946;2022-07-12T18:06:30;3.10;;;1.20;;
65764;SDS011;52915;53.718;19.946;2022-07-12T18:11:35;4.30;;;1.40;;
65764;SDS011;52915;53.718;19.946;2022-07-12T18:16:58;6.30;;;1.60;;
65764;SDS011;52915;53.718;19.946;2022-07-12T18:22:22;2.90;;;1.50;;
65764;SDS011;52915;53.718;19.946;2022-07-12T18:27:27;6.20;;;1.70;;
65764;SDS011;52915;53.718;19.946;2022-07-12T18:32:34;2.70;;;1.70;;
65764;SDS011;52915;53.718;19.946;2022-07-12T18:37:43;6.30;;;1.70;;
65764;SDS011;52915;53.718;19.946;2022-07-12T18:42:51;2.60;;;1.50;;
65764;SDS011;52915;53.718;19.946;2022-07-12T18:47:58;1.70;;;1.60;;
65764;SDS011;52915;53.718;19.946;2022-07-12T18:53:03;2.70;;;1.60;;
65764;SDS011;52915;53.718;19.946;2022-07-12T18:58:10;2.70;;;2.00;;
65764;SDS011;52915;53.718;19.946;2022-07-12T19:03:16;6.20;;;1.80;;
65764;SDS011;52915;53.718;19.946;2022-07-12T19:08:27;5.40;;;1.70;;
65764;SDS011;52915;53.718;19.946;2022-07-12T19:13:34;6.60;;;1.90;;
65764;SDS011;52915;53.718;19.946;2022-07-12T19:18:39;4.40;;;1.80;;
65764;SDS011;52915;53.718;19.946;2022-07-12T19:23:44;5.00;;;2.10;;
65764;SDS011;52915;53.718;19.946;2022-07-12T19:28:49;3.10;;;1.80;;
65764;SDS011;52915;53.718;19.946;2022-07-12T19:34:00;8.10;;;1.80;;
65764;SDS011;52915;53.718;19.946;2022-07-12T19:39:05;12.80;;;2.20;;
65764;SDS011;52915;53.718;19.946;2022-07-12T19:44:12;6.30;;;2.00;;
65764;SDS011;52915;53.718;19.946;2022-07-12T19:49:17;4.10;;;1.50;;
65764;SDS011;52915;53.718;19.946;2022-07-12T19:54:27;5.00;;;1.50;;
65764;SDS011;52915;53.718;19.946;2022-07-12T19:59:32;5.90;;;2.10;;
65764;SDS011;52915;53.718;19.946;2022-07-12T20:04:37;4.70;;;1.60;;
65764;SDS011;52915;53.718;19.946;2022-07-12T20:09:44;6.10;;;1.90;;
65764;SDS011;52915;53.718;19.946;2022-07-12T20:14:49;7.50;;;2.00;;
65764;SDS011;52915;53.718;19.946;2022-07-12T20:19:53;6.60;;;2.10;;
65764;SDS011;52915;53.718;19.946;2022-07-12T20:24:59;3.70;;;2.00;;
65764;SDS011;52915;53.718;19.946;2022-07-12T20:30:06;5.40;;;1.90;;
65764;SDS011;52915;53.718;19.946;2022-07-12T20:35:10;7.50;;;2.30;;
65764;SDS011;52915;53.718;19.946;2022-07-12T20:40:15;5.30;;;2.00;;
65764;SDS011;52915;53.718;19.946;2022-07-12T20:45:19;13.60;;;2.60;;
65764;SDS011;52915;53.718;19.946;2022-07-12T20:50:24;7.80;;;2.10;;
65764;SDS011;52915;53.718;19.946;2022-07-12T20:55:28;3.90;;;1.80;;
65764;SDS011;52915;53.718;19.946;2022-07-12T21:00:36;3.10;;;1.90;;
65764;SDS011;52915;53.718;19.946;2022-07-12T21:05:41;17.10;;;2.80;;
65764;SDS011;52915;53.718;19.946;2022-07-12T21:10:45;7.80;;;1.90;;
65764;SDS011;52915;53.718;19.946;2022-07-12T21:15:50;7.00;;;3.10;;
65764;SDS011;52915;53.718;19.946;2022-07-12T21:20:55;7.20;;;2.70;;
65764;SDS011;52915;53.718;19.946;2022-07-12T21:26:00;5.30;;;2.10;;
65764;SDS011;52915;53.718;19.946;2022-07-12T21:31:06;8.10;;;2.50;;
65764;SDS011;52915;53.718;19.946;2022-07-12T21:36:11;6.90;;;3.00;;
65764;SDS011;52915;53.718;19.946;2022-07-12T21:41:15;9.00;;;3.30;;
65764;SDS011;52915;53.718;19.946;2022-07-12T21:46:19;8.00;;;2.50;;
65764;SDS011;52915;53.718;19.946;2022-07-12T21:51:26;7.50;;;3.80;;
65764;SDS011;52915;53.718;19.946;2022-07-12T21:56:33;11.10;;;3.20;;
65764;SDS011;52915;53.718;19.946;2022-07-12T22:01:40;9.60;;;3.40;;
65764;SDS011;52915;53.718;19.946;2022-07-12T22:06:44;11.40;;;2.80;;
65764;SDS011;52915;53.718;19.946;2022-07-12T22:11:49;8.50;;;3.00;;
65764;SDS011;52915;53.718;19.946;2022-07-12T22:16:53;7.80;;;2.60;;
65764;SDS011;52915;53.718;19.946;2022-07-12T22:21:58;14.50;;;3.30;;
65764;SDS011;52915;53.718;19.946;2022-07-12T22:27:02;6.20;;;2.80;;
65764;SDS011;52915;53.718;19.946;2022-07-12T22:32:07;10.00;;;3.60;;
65764;SDS011;52915;53.718;19.946;2022-07-12T22:37:11;9.10;;;3.10;;
65764;SDS011;52915;53.718;19.946;2022-07-12T22:42:15;14.60;;;3.90;;
65764;SDS011;52915;53.718;19.946;2022-07-12T22:47:20;9.10;;;3.60;;
65764;SDS011;52915;53.718;19.946;2022-07-12T22:52:25;10.40;;;3.50;;
65764;SDS011;52915;53.718;19.946;2022-07-12T22:57:29;9.70;;;4.70;;
65764;SDS011;52915;53.718;19.946;2022-07-12T23:02:35;15.90;;;3.70;;
65764;SDS011;52915;53.718;19.946;2022-07-12T23:07:38;17.20;;;4.20;;
65764;SDS011;52915;53.718;19.946;2022-07-12T23:12:42;13.50;;;4.10;;
65764;SDS011;52915;53.718;19.946;2022-07-12T23:17:47;5.80;;;3.50;;
65764;SDS011;52915;53.718;19.946;2022-07-12T23:22:51;17.90;;;4.80;;
65764;SDS011;52915;53.718;19.946;2022-07-12T23:27:56;11.80;;;3.80;;
65764;SDS011;52915;53.718;19.946;2022-07-12T23:33:01;15.70;;;4.10;;
65764;SDS011;52915;53.718;19.946;2022-07-12T23:38:05;20.10;;;4.50;;
65764;SDS011;52915;53.718;19.946;2022-07-12T23:43:10;10.10;;;4.00;;
65764;SDS011;52915;53.718;19.946;2022-07-12T23:48:15;21.60;;;5.10;;
65764;SDS011;52915;53.718;19.946;2022-07-12T23:53:19;10.90;;;4.30;;
65764;SDS011;52915;53.718;19.946;2022-07-12T23:58:23;14.20;;;5.00;;
